Date,TemperatureHighF,TemperatureAvgF,TemperatureLowF,DewpointHighF,DewpointAvgF,DewpointLowF,HumidityHigh,HumidityAvg,HumidityLow,PressureMaxIn,PressureMinIn,WindSpeedMaxMPH,WindSpeedAvgMPH,GustSpeedMaxMPH,PrecipitationSumIn
2013-1-1,39,36,34,31,26,17,79,68,43,29.99,29.84,21,6,26,0.12
2013-1-2,34,32,27,27,18,11,74,57,41,30.07,29.87,16,5,25,0.00
2013-1-3,36,27,20,15,13,10,64,54,41,30.13,30.01,16,3,21,0.00
2013-1-4,32,29,26,16,13,12,55,52,48,30.19,30.07,24,9,35,0.00
2013-1-5,41,32,23,21,17,12,63,54,40,30.28,30.07,26,4,31,0.04
2013-1-6,39,36,32,23,21,19,61,54,50,30.07,29.90,22,7,26,0.13
2013-1-7,39,31,24,23,17,14,67,56,45,30.31,30.04,25,5,30,0.00
2013-1-8,46,29,17,26,17,9,74,62,42,30.28,30.19,11,1,15,0.04
2013-1-9,46,32,24,38,22,16,75,69,57,30.31,30.19,6,1,9,0.00
2013-1-19,47,37,27,27,21,18,76,55,39,30.22,29.96,22,4,27,0.04
2013-1-20,46,38,28,25,19,9,71,47,35,29.99,29.90,40,9,44,0.05
2013-1-21,40,30,22,16,9,-1,57,40,30,29.99,29.75,30,8,51,0.00
2013-1-22,22,14,10,0,-7,-10,40,37,35,30.07,29.87,46,12,51,0.00
2013-1-23,25,19,11,6,-3,-11,46,38,32,30.13,29.87,39,8,45,0.00
2013-1-24,24,18,9,10,1,-8,55,46,38,30.34,29.84,26,8,45,0.00
2013-1-25,27,18,9,24,5,-8,89,59,41,30.31,29.90,18,3,18,0.00
2013-1-26,32,26,24,23,13,10,84,57,46,30.28,29.90,35,10,54,0.00
2013-1-27,43,27,10,22,11,1,78,52,33,30.37,30.25,11,3,15,0.04
2013-1-28,59,43,31,46,34,16,86,71,45,30.25,30.04,26,3,26,0.25
2013-1-29,72,54,40,56,44,37,97,74,33,30.10,29.93,16,3,21,0.00
2013-1-30,66,53,37,58,48,34,98,87,61,29.93,29.34,42,5,42,1.78
2013-1-31,46,31,25,44,16,6,94,56,40,29.84,29.31,51,13,65,0.04
2013-2-1,28,17,4,25,0,-15,92,48,33,30.19,29.69,48,10,51,0.00
2013-2-2,29,15,1,22,1,-18,86,54,37,30.19,29.87,18,2,25,0.00
2013-2-3,36,27,22,22,14,7,82,59,44,29.93,29.72,41,10,47,0.00
2013-2-4,36,27,16,29,11,3,83,52,39,29.96,29.81,46,7,46,0.00
2013-2-5,43,36,29,31,26,22,88,68,47,29.84,29.72,23,4,32,0.13
2013-2-6,48,35,23,32,21,14,92,58,32,30.16,29.84,22,5,30,0.00
2013-2-7,39,31,23,29,23,17,85,73,51,30.19,29.99,16,4,20,0.00
2013-2-8,42,34,29,36,26,17,88,74,53,30.04,29.72,40,7,54,0.00
2013-2-9,47,30,19,19,10,5,67,43,25,30.22,30.01,34,8,55,0.00
2013-2-10,50,30,15,28,13,6,78,54,27,30.28,30.01,21,-48,21,0.04
2013-2-11,60,44,34,50,29,12,92,62,27,30.04,29.75,31,5,38,0.08
2013-2-12,56,42,33,21,15,10,46,34,21,29.99,29.81,30,9,50,0.00
2013-2-13,40,33,30,32,22,12,93,65,39,29.84,29.48,19,3,26,0.16
2013-2-14,51,34,24,26,18,14,78,54,31,29.93,29.72,19,4,25,0.00
2013-2-15,56,33,20,41,23,15,87,70,33,29.93,29.78,34,3,36,0.09
2013-2-16,32,27,19,23,12,5,72,52,36,29.87,29.72,33,7,40,0.00
2013-2-17,25,18,11,6,-2,-6,54,41,33,30.04,29.78,46,14,52,0.00
2013-2-18,53,26,6,20,5,-11,72,42,27,30.19,29.96,17,2,21,0.00
2013-2-19,47,34,24,39,21,6,84,61,32,29.99,29.66,36,6,39,0.12
2013-2-20,35,26,21,10,4,1,46,38,32,30.01,29.84,49,11,49,0.00
2013-2-21,48,28,14,16,8,2,60,44,27,30.10,29.96,21,5,24,0.00
2013-2-22,39,32,28,26,20,11,77,62,40,30.16,29.99,17,6,21,0.04
2013-2-23,62,42,32,34,29,26,80,62,34,30.01,29.72,12,3,20,0.00
2013-2-24,48,37,26,32,19,10,87,51,27,29.99,29.75,33,8,46,0.00
2013-2-25,48,31,17,20,12,9,75,48,28,30.07,29.96,13,3,20,0.00
2013-2-26,38,34,30,36,24,10,96,70,42,29.99,29.48,17,6,30,0.29
2013-2-27,45,38,34,36,29,22,96,71,44,29.63,29.48,21,6,30,0.05
2013-2-28,36,31,30,30,22,16,85,67,47,29.72,29.54,30,8,34,0.04
2013-3-1,33,31,29,25,18,13,79,58,44,29.81,29.66,31,7,31,0.00
2013-3-2,31,26,24,14,10,8,58,50,41,29.81,29.72,26,8,31,0.00
2013-3-3,28,24,21,13,9,3,64,52,43,29.87,29.75,28,9,37,0.00
2013-3-4,46,29,20,14,6,2,52,38,25,29.96,29.84,31,8,35,0.00
2013-3-5,46,33,23,32,21,8,97,62,40,29.96,29.51,14,3,18,0.08
2013-3-6,44,32,27,31,24,18,96,73,41,29.99,29.51,21,4,24,0.00
2013-3-7,39,32,30,26,22,18,84,67,45,30.13,29.96,21,6,26,0.04
2013-3-8,47,35,23,23,17,13,74,50,32,30.22,30.07,26,8,46,0.29
2013-3-9,63,36,17,32,18,11,82,54,21,30.25,30.13,13,2,16,0.13
2013-3-10,65,40,23,33,22,17,83,55,24,30.19,30.04,16,3,21,0.00
2013-3-11,55,44,31,47,31,24,90,62,39,30.10,29.72,13,3,20,0.00
2013-3-12,50,42,29,48,31,19,96,68,37,29.93,29.66,28,7,34,0.29
2013-3-13,42,31,24,30,17,8,85,58,36,30.01,29.84,60,8,60,0.04
2013-3-14,42,30,21,16,8,4,75,42,29,30.10,29.99,34,11,59,0.00
2013-3-15,58,40,20,26,16,4,61,40,27,30.04,29.72,25,6,34,0.00
2013-3-16,73,51,33,47,35,23,87,58,26,29.81,29.51,40,6,50,0.08
2013-3-17,50,43,36,38,34,30,93,73,56,30.01,29.78,15,4,21,0.17
2013-3-18,36,33,31,34,30,26,93,87,79,30.01,29.72,17,7,35,0.25
2013-3-19,54,42,33,37,19,0,98,49,19,29.93,29.69,47,10,66,0.00
2013-3-20,50,37,28,22,7,-1,66,29,19,29.93,29.66,38,10,45,0.00
2013-3-21,33,24,17,16,5,0,56,45,32,29.84,29.66,29,10,41,0.00
2013-3-22,45,26,10,14,5,-4,65,40,28,29.93,29.84,21,6,35,0.00
2013-3-23,57,34,16,18,11,4,62,41,21,29.93,29.84,26,4,26,0.00
2013-3-24,36,30,24,29,19,8,89,65,40,29.87,29.45,21,4,25,0.00
2013-3-25,44,32,28,27,22,15,90,68,39,29.66,29.39,47,7,48,0.04
2013-3-26,45,34,30,22,19,15,69,57,36,29.99,29.66,24,8,34,0.16
2013-3-27,37,32,28,24,18,14,77,57,42,30.07,29.96,24,7,33,0.04
2013-3-28,44,36,30,18,15,13,54,43,32,30.13,30.01,26,7,38,0.05
2013-3-29,58,40,27,26,18,13,69,43,24,30.19,30.07,26,5,30,0.00
2013-3-30,64,41,24,33,20,14,79,47,21,30.16,29.96,20,3,29,0.00
2013-3-31,54,43,35,46,34,19,87,70,50,29.99,29.72,21,3,31,0.24
2013-4-1,53,40,32,44,29,15,96,66,41,29.93,29.75,19,-790,19,0.17
2013-4-2,47,35,24,15,10,4,54,36,22,30.07,29.93,39,-256,45,0.00
2013-4-3,50,33,17,17,8,0,71,39,20,30.22,30.07,34,1,35,0.17
2013-4-4,48,32,22,26,13,2,70,47,27,30.25,29.93,13,-623,13,0.17
2013-4-5,58,44,34,34,27,20,77,55,28,30.01,29.84,26,4,35,0.22
2013-4-6,65,45,28,28,22,17,67,44,25,30.16,29.99,18,-20,26,0.00
2013-4-7,72,53,34,38,27,18,55,38,25,30.10,29.96,22,4,32,0.00
2013-4-8,76,58,38,42,34,26,67,44,25,30.04,29.90,26,4,30,0.00
2013-4-9,80,63,46,48,41,36,72,47,29,30.10,29.96,29,4,29,0.00
2013-4-10,85,65,45,50,40,33,71,44,21,30.04,29.84,24,4,35,0.00
2013-4-11,82,65,48,49,40,35,67,43,21,29.87,29.66,22,5,34,0.00
2013-4-12,70,62,49,57,45,25,88,59,30,29.84,29.60,38,8,39,0.82
2013-4-13,66,54,45,33,26,18,49,35,23,29.96,29.78,34,10,54,0.00
2013-4-14,74,55,35,36,27,17,57,36,21,30.04,29.93,22,4,31,0.00
2013-4-15,61,54,50,48,45,32,81,70,35,30.16,29.99,13,4,17,0.54
2013-4-16,80,64,54,55,50,47,89,65,32,30.19,30.07,20,4,30,0.00
2013-4-17,76,65,57,60,53,49,91,68,39,30.19,30.07,16,3,20,0.00
2013-4-18,74,63,53,59,50,44,91,65,41,30.10,29.90,17,4,27,0.00
2013-4-19,68,59,44,58,49,30,80,69,56,29.90,29.60,30,7,34,0.42
2013-4-20,57,45,36,31,22,17,61,42,27,30.22,29.81,34,10,47,0.00
2013-4-21,61,44,29,29,22,17,67,45,28,30.37,30.22,24,4,26,0.00
2013-4-22,64,46,32,30,23,17,64,41,24,30.34,30.13,21,5,26,0.00
2013-4-23,73,51,32,36,27,18,61,42,22,30.19,29.96,17,4,22,0.00
2013-4-24,76,56,40,50,38,30,73,54,31,30.04,29.81,53,6,53,0.08
2013-4-25,63,48,35,33,25,17,63,43,22,30.22,30.04,30,8,34,0.00
2013-4-26,68,49,31,33,24,18,61,40,24,30.31,30.19,17,4,25,0.00
2013-4-27,68,54,41,37,32,23,60,43,28,30.31,30.16,13,4,26,0.00
2013-4-28,56,52,50,48,44,36,92,73,48,30.16,29.96,15,4,21,0.33
2013-4-29,68,56,49,53,48,44,94,76,46,30.01,29.90,17,3,20,0.04
2013-4-30,74,60,52,55,49,44,93,68,39,30.16,29.96,18,4,26,0.00
2013-5-1,71,61,54,48,43,33,75,54,33,30.28,30.13,22,7,26,0.00
2013-5-2,72,61,53,42,37,32,54,42,32,30.28,30.16,17,6,27,0.00
2013-5-3,67,55,41,41,36,32,75,50,34,30.22,30.13,25,7,31,0.00
2013-5-4,66,55,43,38,33,29,57,45,30,30.13,30.01,22,9,38,0.00
2013-5-5,63,54,44,40,31,22,65,43,25,30.07,29.96,35,11,38,0.00
2013-5-6,55,53,50,53,48,40,95,83,65,29.99,29.84,26,9,34,1.87
2013-5-7,55,53,50,54,51,48,98,94,92,29.93,29.84,15,2,26,1.58
2013-5-8,65,54,49,52,48,44,98,82,49,29.99,29.84,12,2,16,0.41
2013-5-9,75,60,48,57,46,41,98,65,32,30.04,29.93,26,4,30,0.04
2013-5-10,80,61,48,55,48,42,86,66,31,30.04,29.87,24,3,32,0.13
2013-5-11,73,62,56,59,52,44,96,73,43,29.90,29.75,26,5,29,0.12
2013-5-12,57,50,41,45,30,22,72,46,30,29.99,29.78,44,10,51,0.00
2013-5-13,56,43,32,29,26,23,73,52,33,30.10,29.96,34,6,40,0.00
2013-5-14,70,50,32,38,30,24,81,51,24,30.13,29.90,17,4,29,0.00
2013-5-15,86,60,43,53,40,33,75,52,21,29.96,29.87,35,5,51,0.00
2013-5-16,75,62,58,52,51,46,79,69,41,29.99,29.90,28,3,45,0.12
2013-5-17,76,64,55,60,55,51,92,75,44,30.13,29.99,14,2,19,0.05
2013-5-18,75,65,59,63,58,56,96,78,55,30.13,30.04,16,3,19,0.04
2013-5-19,66,63,61,64,61,59,98,93,87,30.10,30.01,10,3,13,0.04
2013-5-20,78,68,60,65,61,59,98,81,55,30.07,29.96,20,3,27,0.00
2013-5-21,85,71,61,66,59,54,98,72,39,30.04,29.90,14,3,21,0.00
2013-5-22,80,67,58,62,57,53,91,73,44,29.99,29.87,25,3,26,0.04
2013-5-23,80,66,60,66,58,47,97,77,34,29.93,29.78,26,3,51,0.13
2013-5-24,59,52,45,54,38,27,84,61,37,30.16,29.84,35,9,44,0.04
2013-5-25,63,49,34,30,28,25,73,47,27,30.22,30.13,36,7,36,0.00
2013-5-26,69,53,38,37,29,25,76,44,22,30.22,30.13,31,5,31,0.00
2013-5-27,70,54,37,45,36,25,69,52,36,30.25,30.07,12,2,13,0.00
2013-5-28,83,66,50,56,48,43,83,55,29,30.19,30.07,20,4,34,0.00
2013-5-29,87,70,55,60,51,48,86,56,29,30.19,30.07,16,3,22,0.00
2013-5-30,90,71,54,61,52,46,85,56,24,30.22,30.13,12,2,22,0.00
2013-5-31,87,70,56,61,53,49,87,57,31,30.19,30.04,19,3,22,0.00
2013-6-1,86,72,58,63,54,50,84,58,31,30.10,29.96,16,3,26,0.00
2013-6-2,76,67,60,64,58,53,88,73,56,29.99,29.84,17,2,27,0.08
2013-6-3,75,67,59,65,58,50,96,74,44,30.01,29.84,21,3,26,0.08
2013-6-4,81,65,53,59,50,44,92,63,31,30.10,29.96,17,3,25,0.00
2013-6-5,78,66,56,58,54,48,84,65,48,30.13,29.96,15,3,22,0.00
2013-6-6,69,64,61,63,59,54,93,84,70,30.04,29.81,16,3,16,0.63
2013-6-7,71,66,63,68,63,56,98,90,73,29.87,29.66,21,2,25,0.49
2013-6-8,81,66,57,60,54,47,98,70,33,30.10,29.84,20,2,21,0.00
2013-6-9,87,69,57,63,56,50,91,67,31,30.16,30.01,17,2,21,0.33
2013-6-10,75,67,62,70,63,58,97,86,64,30.07,29.84,16,2,25,0.83
2013-6-11,76,66,60,62,59,56,98,79,53,29.99,29.84,14,4,25,0.00
2013-6-12,85,68,59,68,62,57,98,82,48,29.99,29.90,16,4,25,0.00
2013-6-15,81,71,56,60,51,47,92,52,33,30.13,30.01,19,4,19,1.04
2013-6-16,79,66,54,63,56,49,89,73,48,30.07,29.99,17,2,22,0.68
2013-6-17,85,71,63,66,62,58,97,77,44,30.04,29.90,20,3,20,0.29
2013-6-18,75,66,61,67,63,57,98,89,64,29.96,29.84,7,1,16,1.00
2013-6-19,83,68,57,66,58,52,98,75,36,30.10,29.93,16,2,17,0.00
2013-6-20,81,69,61,65,60,58,94,74,48,30.22,30.10,9,2,15,0.00
2013-6-21,84,70,61,67,61,56,95,75,47,30.25,30.16,11,2,16,0.00
2013-6-22,87,70,58,61,56,53,93,64,35,30.25,30.10,12,2,13,0.00
2013-6-23,88,72,60,66,58,53,90,64,33,30.19,30.07,16,2,21,0.00
2013-6-24,85,71,61,66,61,56,91,72,46,30.19,30.07,11,2,17,0.04
2013-6-25,86,73,63,68,63,59,97,75,44,30.13,29.96,13,3,19,0.00
2013-6-26,82,72,65,69,65,62,96,78,55,30.01,29.90,15,3,18,0.04
2013-6-27,75,68,64,67,64,62,98,86,67,29.93,29.72,17,3,21,0.04
2013-6-28,83,73,64,70,58,49,98,65,32,29.75,29.60,29,6,39,0.13
2013-6-29,82,69,57,61,55,50,86,64,39,29.78,29.60,17,3,21,0.00
2013-6-30,86,71,60,67,60,56,93,72,44,29.87,29.72,11,2,15,0.00
2013-7-1,82,70,64,68,63,59,96,78,53,29.99,29.84,12,3,17,0.12
2013-7-2,80,70,64,70,65,62,98,87,61,30.16,29.96,14,2,22,0.17
2013-7-3,77,70,66,71,67,66,98,92,73,30.25,30.13,8,1,12,0.58
2013-7-4,85,73,66,72,66,62,98,83,49,30.25,30.13,13,2,18,0.08
2013-7-5,85,73,66,71,66,63,98,81,55,30.22,30.13,16,2,21,0.04
2013-7-6,86,73,64,71,64,58,98,77,42,30.25,30.07,13,2,19,0.00
2013-7-7,80,69,64,70,64,59,95,86,61,30.16,30.07,21,2,28,0.17
2013-7-8,84,70,64,70,63,58,98,82,46,30.19,30.10,19,2,19,0.00
2013-7-9,87,73,64,70,64,60,97,77,45,30.19,30.04,13,2,16,0.00
2013-7-10,82,71,67,72,67,63,97,88,65,30.10,29.96,14,1,25,0.29
2013-7-11,80,71,66,70,67,63,98,87,65,29.99,29.90,17,2,17,0.12
2013-7-12,76,68,63,66,62,56,98,81,54,30.07,29.90,13,2,21,0.00
2013-7-13,77,69,64,67,62,59,92,80,60,30.19,30.04,13,2,22,0.08
2013-7-14,83,73,67,68,65,60,96,77,49,30.31,30.19,17,4,27,0.05
2013-7-15,90,74,64,72,65,62,98,74,44,30.34,30.25,9,1,11,0.00
2013-7-16,90,73,64,73,66,62,97,79,42,30.34,30.22,19,2,19,0.12
2013-7-17,87,75,67,75,69,64,98,83,57,30.31,30.16,11,2,13,0.00
2013-7-18,87,75,66,74,69,64,98,81,58,30.22,30.07,7,1,11,0.00
2013-7-19,87,74,68,73,68,64,98,83,55,30.13,29.96,18,2,18,0.00
2013-7-20,86,73,66,72,67,63,98,82,53,30.01,29.90,17,2,26,0.71
2013-7-21,84,72,65,74,67,63,98,85,55,30.04,29.93,17,2,25,0.00
2013-7-22,82,73,68,71,67,64,98,84,57,30.01,29.81,16,2,17,0.33
2013-7-23,83,73,67,70,65,58,98,79,43,29.84,29.78,20,4,38,0.00
2013-7-24,81,71,64,67,61,54,97,74,44,29.96,29.78,15,3,21,0.00
2013-7-25,80,68,60,60,54,48,85,63,38,30.07,29.93,20,3,22,0.00
2013-7-26,82,66,54,61,53,49,91,66,33,30.10,30.01,15,2,21,0.00
2013-7-27,72,66,63,68,63,58,97,90,76,30.07,29.93,8,0,11,0.29
2013-7-28,78,69,61,66,61,54,98,79,45,30.07,29.93,21,3,26,0.04
2013-7-29,74,63,54,59,51,46,94,69,39,30.22,30.01,20,2,22,0.00
2013-7-30,80,63,50,60,51,47,92,68,35,30.25,30.13,13,2,16,0.00
2013-7-31,68,63,60,63,60,53,98,89,73,30.19,29.99,6,1,9,0.54
2013-8-1,78,68,63,68,62,58,98,84,54,30.01,29.90,16,2,19,0.08
2013-8-2,78,68,59,65,58,50,97,73,38,30.07,29.96,15,2,20,0.00
2013-8-3,79,67,58,65,58,52,94,76,41,30.04,29.96,17,2,21,0.00
2013-8-4,76,66,58,62,55,48,96,69,40,30.10,29.96,17,3,24,0.00
2013-8-5,78,62,52,59,53,48,91,74,46,30.13,29.99,11,1,16,0.00
2013-8-6,83,70,61,66,59,56,95,72,42,30.04,29.96,11,2,13,0.00
2013-8-7,78,70,63,70,65,60,96,86,67,30.04,30.01,11,1,21,0.08
2013-8-8,78,71,67,75,69,66,98,95,83,30.07,29.99,9,1,13,0.33
2013-8-9,83,74,67,72,68,65,98,84,56,30.04,29.96,24,3,28,0.05
2013-8-10,82,73,67,72,67,62,98,85,52,30.10,30.01,16,2,17,0.21
2013-8-11,80,70,66,74,68,64,98,94,73,30.13,30.04,16,0,26,0.57
2013-8-12,82,72,67,71,67,62,98,86,53,30.10,29.96,13,1,17,0.00
2013-8-13,79,70,64,70,64,59,98,85,54,29.99,29.84,16,2,21,0.17
2013-8-14,70,61,51,62,49,41,93,66,38,30.13,29.90,20,4,22,0.00
2013-8-15,71,57,46,53,46,41,90,70,45,30.19,30.07,13,2,17,0.00
2013-8-16,76,60,49,57,49,45,93,70,42,30.16,30.07,14,2,16,0.00
2013-8-17,71,61,52,57,53,48,93,76,54,30.22,30.13,13,2,16,0.00
2013-8-18,71,64,59,65,61,55,98,88,71,30.22,30.13,8,1,16,0.13
2013-8-19,77,68,63,68,64,62,98,88,63,30.19,30.07,15,1,15,0.04
2013-8-20,83,69,60,67,62,58,97,79,43,30.19,30.10,11,2,13,0.00
2013-8-21,81,70,64,70,64,60,98,82,59,30.22,30.10,15,2,16,0.00
2013-8-22,80,69,61,68,63,58,98,82,59,30.16,30.01,14,2,20,0.04
2013-8-23,78,68,60,68,62,55,98,82,52,30.16,29.99,16,2,25,0.00
2013-8-24,78,64,53,61,54,50,96,74,40,30.31,30.13,11,2,12,0.00
2013-8-25,78,63,52,63,52,49,95,72,41,30.40,30.28,9,1,13,0.00
2013-8-26,80,64,52,62,54,48,94,72,41,30.31,30.07,12,2,16,0.00
2013-8-27,81,68,57,69,60,54,98,77,48,30.10,29.99,20,2,26,0.00
2013-8-28,82,72,67,73,67,63,98,87,55,30.04,29.87,21,3,44,0.58
2013-8-29,85,73,67,73,68,63,98,84,52,30.07,29.90,9,1,12,0.04
2013-8-30,81,71,64,70,66,63,98,85,62,30.07,29.93,8,1,12,0.00
2013-8-31,82,70,65,71,66,61,98,87,58,29.96,29.84,13,2,31,0.17
2013-9-1,76,69,64,75,68,64,98,97,88,29.93,29.81,8,1,13,0.17
2013-9-2,83,72,66,73,66,61,98,83,52,29.93,29.84,15,3,19,0.00
2013-9-3,78,69,59,68,58,48,98,73,40,30.04,29.87,20,3,29,0.00
2013-9-4,77,63,54,60,53,50,94,72,42,30.13,30.04,16,3,20,0.00
2013-9-5,77,63,52,61,53,50,95,72,41,30.16,30.07,18,3,26,0.00
2013-9-6,77,64,56,59,53,49,96,72,40,30.19,30.07,10,2,14,0.00
2013-9-7,79,63,53,60,50,44,93,67,32,30.13,29.99,13,2,22,0.00
2013-9-8,82,65,52,63,55,47,90,71,43,30.07,29.96,15,2,26,0.00
2013-9-9,78,67,60,66,61,57,96,81,59,30.16,30.04,9,2,16,0.00
2013-9-10,85,71,62,69,64,60,98,82,52,30.22,30.13,9,1,13,0.00
2013-9-11,84,70,65,72,66,64,98,90,53,30.22,30.13,25,2,29,0.00
2013-9-14,69,55,44,47,42,39,90,65,38,30.13,29.99,14,2,16,0.00
2013-9-15,73,56,43,54,46,39,90,70,42,30.19,30.07,19,2,21,0.00
2013-9-16,64,58,51,51,48,45,79,70,62,30.22,30.13,17,-9,22,0.00
2013-9-17,68,55,45,54,45,41,95,73,44,30.31,30.19,13,2,16,0.00
2013-9-18,68,54,44,56,48,40,93,78,55,30.28,30.10,11,1,12,0.04
2013-9-19,72,63,58,63,59,56,98,88,69,30.16,30.04,9,1,13,0.04
2013-9-20,74,66,62,69,64,61,98,93,76,30.07,29.93,9,1,13,0.17
2013-9-21,68,63,57,66,62,57,98,97,88,29.96,29.72,16,1,35,0.54
2013-9-22,69,57,48,59,50,42,98,80,46,29.96,29.78,16,2,18,0.00
2013-9-23,69,54,44,53,46,41,96,77,47,30.07,29.96,13,2,24,0.00
2013-9-24,73,58,48,56,50,44,94,78,50,30.07,29.90,12,2,19,0.00
2013-9-25,67,59,52,61,54,50,97,84,66,29.96,29.84,9,1,15,0.00
2013-9-26,75,62,55,59,55,50,97,80,48,30.07,29.90,7,1,13,0.00
2013-9-27,73,58,47,58,49,45,97,75,42,30.16,30.04,15,1,15,0.00
2013-9-28,65,57,49,56,49,43,96,76,52,30.25,30.13,16,2,16,0.00
2013-9-29,70,56,46,53,48,43,95,76,47,30.16,30.01,6,1,11,0.00
2013-9-30,69,58,49,58,51,47,96,80,55,30.07,29.96,10,1,14,0.00
2013-10-1,73,61,53,62,53,48,98,77,44,30.10,30.01,15,2,16,0.00
2013-10-2,76,60,50,62,52,47,97,76,43,30.16,30.04,13,2,19,0.00
2013-10-3,76,61,51,62,54,49,97,79,49,30.16,30.04,6,1,11,0.00
2013-10-4,79,64,55,65,56,53,97,79,46,30.16,30.07,13,2,17,0.00
2013-10-5,80,65,57,67,58,55,98,79,44,30.16,30.04,16,2,17,0.00
2013-10-6,79,65,56,66,56,52,98,75,43,30.07,29.87,13,3,22,0.00
2013-10-7,64,58,45,62,50,38,98,76,46,30.07,29.78,30,4,31,0.70
2013-10-8,67,50,39,46,39,35,93,69,37,30.22,30.07,16,2,25,0.00
2013-10-9,66,50,39,47,36,32,93,63,33,30.22,30.13,13,2,17,0.00
2013-10-10,68,57,50,59,50,36,91,79,53,30.16,29.99,12,1,15,0.04
2013-10-11,69,62,58,59,55,51,98,80,57,29.99,29.90,20,3,21,0.05
2013-10-12,69,63,58,59,56,53,93,80,65,30.10,29.96,10,2,12,0.00
2013-10-13,70,63,59,57,54,52,87,73,58,30.25,30.07,10,2,16,0.00
2013-10-14,72,63,58,58,54,51,92,76,51,30.25,30.13,9,2,13,0.00
2013-10-15,68,60,53,52,47,41,84,64,38,30.19,30.04,15,2,17,0.00
2013-10-16,67,57,46,52,47,42,90,71,52,30.07,29.90,15,2,17,0.00
2013-10-17,65,59,50,63,55,41,95,87,70,29.93,29.72,27,2,36,0.12
2013-10-18,64,52,43,41,36,33,69,56,37,30.01,29.90,21,4,28,0.00
2013-10-19,60,48,40,47,38,31,83,71,46,29.96,29.78,25,4,39,0.04
2013-10-20,58,45,35,34,30,26,75,57,37,30.07,29.90,19,3,21,0.00
2013-10-21,66,45,30,41,30,23,79,58,33,30.10,29.90,21,2,25,0.00
2013-10-22,56,45,36,43,34,28,82,66,53,29.93,29.81,26,4,32,0.00
2013-10-23,49,41,36,40,33,27,85,72,58,29.93,29.66,26,5,43,0.04
2013-10-24,42,37,29,30,26,20,75,64,48,30.10,29.90,24,6,34,0.00
2013-10-25,43,35,28,26,21,15,78,59,42,30.28,30.10,21,4,31,0.00
2013-10-26,53,36,20,27,19,10,73,52,35,30.28,29.93,17,4,25,0.00
2013-10-27,60,48,37,32,27,22,57,45,35,30.07,29.96,26,5,28,0.00
2013-10-28,57,43,29,45,33,21,85,68,49,30.19,30.07,13,1,15,0.04
2013-10-29,64,54,47,50,45,42,92,75,46,30.28,30.19,12,2,18,0.00
2013-10-30,58,54,50,58,52,44,98,91,73,30.22,30.07,8,0,8,0.21
2013-10-31,65,58,54,61,54,50,98,90,63,30.10,29.69,24,2,24,0.00
2013-11-1,68,61,46,54,48,38,85,63,39,29.75,29.57,26,6,45,0.29
2013-11-2,58,47,37,41,33,26,91,61,36,29.93,29.72,32,6,35,0.00
2013-11-3,51,44,31,30,26,19,62,51,39,30.31,29.90,26,5,31,0.00
2013-11-4,50,36,25,28,22,16,74,56,39,30.43,30.28,15,3,15,0.00
2013-11-5,51,42,32,37,27,21,70,57,38,30.46,30.31,12,3,15,0.00
2013-11-6,68,54,46,47,41,37,76,62,41,30.34,30.01,16,3,25,0.00
2013-11-7,51,45,36,50,34,18,96,67,46,30.04,29.90,30,6,34,0.04
2013-11-8,44,36,27,23,18,14,62,49,39,30.22,30.04,25,6,40,0.00
2013-11-9,56,38,24,28,20,14,71,51,31,30.22,30.01,20,-25,20,0.00
2013-11-10,56,44,32,29,21,14,52,39,28,30.19,29.99,36,-55,52,0.00
2013-11-11,58,39,26,28,18,13,62,45,26,30.22,29.96,16,-99,23,0.00
2013-11-12,46,34,25,28,16,7,53,46,42,30.31,29.93,31,-40,31,0.00
2013-11-13,38,28,22,15,9,6,53,45,38,30.37,30.28,21,-39,27,0.00
2013-11-14,52,30,16,24,12,4,64,47,30,30.31,30.16,17,-9,20,0.00
2013-11-15,58,37,20,35,19,6,69,48,30,30.22,30.07,15,2,22,0.25
2013-11-16,59,49,42,47,41,34,82,73,59,30.19,30.10,12,3,13,0.00
2013-11-17,66,55,49,55,49,44,94,79,56,30.16,29.72,12,-8,13,0.08
2013-11-18,57,50,41,55,32,18,95,53,31,29.99,29.72,46,-22,52,0.21
2013-11-19,44,36,30,20,17,15,53,45,39,30.19,29.96,24,-763,27,0.00
2013-11-20,45,34,26,21,16,13,60,48,36,30.34,30.19,12,-872,12,0.00
2013-11-21,51,40,29,34,26,14,68,58,50,30.37,30.25,8,-910,8,0.00
2013-11-22,57,49,42,54,43,34,92,78,68,30.25,30.01,26,-477,26,0.04
2013-11-23,50,39,25,42,24,6,74,56,42,30.19,30.04,46,3,47,0.00
2013-11-24,25,19,14,10,1,-2,54,45,39,30.37,30.16,31,11,46,0.00
2013-11-25,40,25,12,16,6,-4,55,44,33,30.40,30.19,12,-40,13,0.00
2013-11-26,42,36,32,38,29,16,88,76,51,30.19,29.60,10,2,16,2.29
2013-11-27,57,30,21,48,19,6,87,65,48,30.04,29.60,34,10,51,0.04
2013-11-28,33,25,20,15,10,6,62,53,45,30.34,30.01,25,5,28,0.00
2013-11-29,40,27,18,21,15,8,71,59,45,30.49,30.31,11,2,15,0.00
2013-11-30,37,26,17,20,14,7,72,60,47,30.49,30.22,12,2,16,0.00
2013-12-1,46,30,16,27,18,6,73,61,47,30.22,29.93,8,1,17,0.00
2013-12-2,52,42,36,33,29,26,73,62,47,29.96,29.75,9,1,13,0.00
2013-12-3,53,41,33,36,31,26,78,68,53,29.93,29.78,11,2,15,0.00
2013-12-4,60,45,35,45,37,29,85,73,54,29.99,29.87,11,2,17,0.00
2013-12-5,58,48,39,50,43,33,93,85,72,30.04,29.90,5,1,6,0.04
2013-12-6,54,49,40,54,48,38,98,96,92,30.04,29.84,16,3,58,1.20
2013-12-7,40,36,31,38,28,20,93,75,62,30.34,30.04,15,4,21,0.00
2013-12-8,33,31,29,30,22,18,89,71,59,30.34,30.07,17,6,20,0.21
2013-12-9,41,36,31,38,32,28,89,87,83,30.13,29.96,17,2,26,0.41
2013-12-10,34,30,25,33,23,11,96,76,53,30.13,29.81,28,6,39,0.13
2013-12-11,37,28,21,18,13,10,62,55,45,30.22,30.10,22,7,36,0.04
2013-12-12,30,24,18,14,6,2,51,45,37,30.31,30.13,26,9,40,0.00
2013-12-13,37,27,15,15,9,1,56,46,39,30.19,30.04,21,4,30,0.00
2013-12-14,35,33,29,30,25,14,82,72,53,30.16,29.63,15,3,20,0.12
2013-12-15,37,33,30,33,24,17,87,68,56,29.96,29.63,30,9,40,0.21
2013-12-16,37,31,28,24,21,16,75,64,57,29.99,29.87,39,6,39,0.04
2013-12-17,40,32,24,32,25,18,85,77,69,29.96,29.78,29,4,30,0.21
2013-12-18,34,29,24,24,15,11,78,55,44,30.13,29.93,28,9,49,0.04
2013-12-19,50,30,18,27,17,8,73,59,39,30.13,30.01,13,1,21,0.08
2013-12-20,54,37,28,31,26,21,76,64,41,30.04,29.93,11,1,12,0.00
2013-12-21,62,47,36,55,39,29,89,74,64,29.99,29.84,26,2,35,0.00
2013-12-22,64,56,51,55,53,50,98,88,71,29.99,29.78,19,3,30,0.62
2013-12-23,52,44,30,51,38,13,98,79,43,30.16,29.90,26,5,37,0.67
2013-12-24,32,26,17,17,10,1,55,51,46,30.31,30.07,33,8,48,0.00
2013-12-25,34,21,11,15,6,-2,56,50,42,30.37,30.16,13,2,16,0.00
2013-12-26,39,28,18,22,13,5,60,53,42,30.28,30.10,30,4,40,0.00
2013-12-27,44,28,18,24,13,6,64,54,43,30.34,30.16,15,2,16,0.00
2013-12-28,48,31,18,28,17,6,65,55,43,30.28,30.04,12,1,20,0.00
2013-12-29,45,40,35,41,34,24,85,80,62,30.10,29.60,35,6,35,1.53
2013-12-30,40,36,32,34,26,20,78,67,60,30.04,29.84,29,8,33,0.00
2013-12-31,35,30,25,23,17,12,69,58,50,30.22,30.01,39,8,52,0.00
2014-1-1,48,30,20,29,17,11,69,60,46,30.25,30.01,13,1,17,0.00
2014-1-2,35,30,22,31,21,10,83,71,58,30.01,29.51,26,3,32,0.13